createdAt,value
2018-02-15T00:01:55.710Z,29.90
2018-02-15T00:04:24.862Z,27.90
2018-02-15T00:06:53.293Z,27.60
2018-02-15T00:09:21.721Z,30.53
2018-02-15T00:11:50.181Z,30.37
2018-02-15T00:14:18.558Z,29.90
2018-02-15T00:16:46.966Z,27.70
2018-02-15T00:19:15.348Z,32.10
2018-02-15T00:21:43.754Z,32.30
2018-02-15T00:24:12.917Z,32.20
2018-02-15T00:26:41.325Z,29.90
2018-02-15T00:29:09.721Z,29.53
2018-02-15T00:31:38.106Z,30.40
2018-02-15T00:34:06.506Z,31.07
2018-02-15T00:36:34.982Z,31.57
2018-02-15T00:39:03.352Z,31.20
2018-02-15T00:41:31.753Z,33.40
2018-02-15T00:44:00.215Z,32.57
2018-02-15T00:46:28.584Z,33.60
2018-02-15T00:48:56.962Z,31.53
2018-02-15T00:51:25.377Z,31.70
2018-02-15T00:53:53.745Z,29.83
2018-02-15T00:56:22.122Z,31.33
2018-02-15T00:58:50.521Z,32.40
2018-02-15T01:01:18.910Z,33.67
2018-02-15T01:03:47.326Z,33.97
2018-02-15T01:06:15.705Z,33.90
2018-02-15T01:08:44.130Z,28.30
2018-02-15T01:11:12.505Z,32.53
2018-02-15T01:13:40.934Z,30.57
2018-02-15T01:16:10.166Z,32.40
2018-02-15T01:18:38.669Z,31.20
2018-02-15T01:21:07.139Z,32.80
2018-02-15T01:23:35.598Z,35.97
2018-02-15T01:26:03.967Z,34.17
2018-02-15T01:28:32.376Z,34.70
2018-02-15T01:31:00.770Z,32.40
2018-02-15T01:33:29.212Z,34.90
2018-02-15T01:35:57.621Z,34.07
2018-02-15T01:38:25.997Z,33.47
2018-02-15T01:40:54.469Z,31.90
2018-02-15T01:43:22.862Z,32.33
2018-02-15T01:45:51.365Z,31.47
2018-02-15T01:48:20.512Z,31.73
2018-02-15T01:50:48.920Z,31.40
2018-02-15T01:53:17.291Z,31.70
2018-02-15T01:55:45.694Z,34.20
2018-02-15T01:58:14.087Z,32.00
2018-02-15T02:00:43.281Z,32.37
2018-02-15T02:03:11.846Z,34.10
2018-02-15T02:05:40.380Z,33.43
2018-02-15T02:08:08.810Z,31.37
2018-02-15T02:10:37.192Z,34.00
2018-02-15T02:15:40.090Z,32.67
2018-02-15T02:18:08.498Z,30.77
2018-02-15T02:20:37.646Z,31.93
2018-02-15T02:23:06.053Z,33.00
2018-02-15T02:25:34.474Z,33.03
2018-02-15T02:28:02.844Z,34.97
2018-02-15T02:30:31.230Z,32.60
2018-02-15T02:32:59.620Z,32.63
2018-02-15T02:35:27.994Z,33.23
2018-02-15T02:37:56.418Z,32.00
2018-02-15T02:40:24.870Z,34.17
2018-02-15T02:42:53.261Z,32.53
2018-02-15T02:45:21.669Z,34.13
2018-02-15T02:47:50.042Z,32.43
2018-02-15T02:50:18.464Z,32.40
2018-02-15T02:52:46.842Z,33.80
2018-02-15T02:55:15.231Z,32.77
2018-02-15T02:57:43.616Z,34.70
2018-02-15T03:00:11.984Z,33.57
2018-02-15T03:02:40.389Z,32.57
2018-02-15T03:05:08.854Z,33.97
2018-02-15T03:07:37.250Z,33.23
2018-02-15T03:10:05.694Z,31.87
2018-02-15T03:12:34.070Z,33.00
2018-02-15T03:15:04.193Z,29.87
2018-02-15T03:17:32.598Z,30.97
2018-02-15T03:20:01.161Z,30.87
2018-02-15T03:22:29.561Z,30.37
2018-02-15T03:24:57.938Z,31.93
2018-02-15T03:27:26.343Z,30.90
2018-02-15T03:29:54.732Z,31.50
2018-02-15T03:32:23.126Z,32.30
2018-02-15T03:34:52.294Z,30.70
2018-02-15T03:37:20.723Z,29.30
2018-02-15T03:39:49.114Z,29.90
2018-02-15T03:42:17.582Z,30.03
2018-02-15T03:44:45.944Z,30.13
2018-02-15T03:47:15.195Z,30.30
2018-02-15T03:49:43.587Z,28.67
2018-02-15T03:52:12.035Z,30.17
2018-02-15T03:54:40.444Z,30.50
2018-02-15T03:57:08.853Z,29.37
2018-02-15T03:59:37.998Z,28.50
2018-02-15T04:02:06.383Z,28.83
2018-02-15T04:04:34.857Z,28.40
2018-02-15T04:07:03.289Z,30.50
2018-02-15T04:09:32.440Z,28.93
2018-02-15T04:12:00.920Z,30.03
2018-02-15T04:14:29.400Z,29.20
2018-02-15T04:16:57.833Z,28.97
2018-02-15T04:19:26.241Z,29.07
2018-02-15T04:21:54.758Z,29.37
2018-02-15T04:24:23.138Z,29.67
2018-02-15T04:26:51.566Z,30.33
2018-02-15T04:29:19.940Z,30.63
2018-02-15T04:31:48.321Z,29.50
2018-02-15T04:34:16.729Z,30.97
2018-02-15T04:36:45.187Z,29.00
2018-02-15T04:39:13.562Z,30.07
2018-02-15T04:41:41.966Z,30.77
2018-02-15T04:44:10.348Z,30.27
2018-02-15T04:46:38.749Z,31.70
2018-02-15T04:49:07.128Z,29.77
2018-02-15T04:51:35.683Z,28.30
2018-02-15T04:54:04.084Z,30.47
2018-02-15T04:56:32.463Z,29.60
2018-02-15T04:59:00.871Z,27.43
2018-02-15T05:01:30.046Z,30.80
2018-02-15T05:03:58.498Z,32.40
2018-02-15T05:06:26.904Z,31.00
2018-02-15T05:08:55.277Z,32.90
2018-02-15T05:11:23.673Z,29.00
2018-02-15T05:13:52.918Z,30.53
2018-02-15T05:16:21.311Z,29.77
2018-02-15T05:18:49.705Z,29.57
2018-02-15T05:21:18.173Z,29.43
2018-02-15T05:23:46.547Z,28.07
2018-02-15T05:26:14.932Z,28.40
2018-02-15T05:28:43.341Z,29.40
2018-02-15T05:31:12.558Z,29.00
2018-02-15T05:33:40.966Z,30.80
2018-02-15T05:36:09.351Z,29.17
2018-02-15T05:38:38.002Z,29.10
2018-02-15T05:41:07.258Z,29.20
2018-02-15T05:43:35.724Z,29.40
2018-02-15T05:46:04.196Z,30.97
2018-02-15T05:48:32.627Z,29.20
2018-02-15T05:51:01.818Z,31.80
2018-02-15T05:53:30.374Z,31.53
2018-02-15T05:55:58.764Z,28.80
2018-02-15T05:58:27.208Z,31.00
2018-02-15T06:00:55.821Z,28.27
2018-02-15T06:03:24.216Z,28.27
2018-02-15T06:05:52.622Z,29.77
2018-02-15T06:08:21.078Z,31.53
2018-02-15T06:10:49.491Z,31.17
2018-02-15T06:13:17.896Z,29.83
2018-02-15T06:15:46.360Z,31.17
2018-02-15T06:18:14.768Z,29.90
2018-02-15T06:20:43.194Z,29.27
2018-02-15T06:23:12.421Z,32.40
2018-02-15T06:25:40.827Z,31.47
2018-02-15T06:28:09.346Z,30.80
2018-02-15T06:30:38.573Z,30.77
2018-02-15T06:33:06.982Z,29.90
2018-02-15T06:35:35.407Z,31.40
2018-02-15T06:38:04.606Z,30.87
2018-02-15T06:40:33.792Z,31.70
2018-02-15T06:43:02.237Z,31.70
2018-02-15T06:45:31.435Z,32.43
2018-02-15T06:47:59.918Z,32.97
2018-02-15T06:50:28.330Z,34.73
2018-02-15T06:52:56.745Z,33.03
2018-02-15T06:55:25.170Z,33.37
2018-02-15T06:57:53.582Z,33.27
2018-02-15T07:00:22.032Z,33.87
2018-02-15T07:02:50.440Z,31.17
2018-02-15T07:05:18.869Z,31.20
2018-02-15T07:07:47.337Z,30.63
2018-02-15T07:10:15.786Z,32.03
2018-02-15T07:12:45.021Z,37.33
2018-02-15T07:15:13.462Z,33.00
2018-02-15T07:17:41.889Z,34.50
2018-02-15T07:20:10.322Z,32.10
2018-02-15T07:22:38.753Z,38.13
2018-02-15T07:25:07.186Z,35.60
2018-02-15T07:27:36.375Z,32.77
2018-02-15T07:30:04.808Z,32.43
2018-02-15T07:32:33.237Z,34.57
2018-02-15T07:35:01.683Z,33.00
2018-02-15T07:37:30.117Z,33.63
2018-02-15T07:39:58.528Z,33.20
2018-02-15T07:42:26.939Z,33.57
2018-02-15T07:44:56.162Z,36.00
2018-02-15T07:47:24.598Z,35.70
2018-02-15T07:49:53.010Z,32.37
2018-02-15T07:52:21.453Z,35.27
2018-02-15T07:54:49.873Z,37.67
2018-02-15T07:57:18.311Z,37.27
2018-02-15T07:59:46.740Z,33.87
2018-02-15T08:02:15.147Z,34.60
2018-02-15T08:04:43.590Z,36.00
2018-02-15T08:07:12.028Z,35.40
2018-02-15T08:09:40.476Z,35.97
2018-02-15T08:12:08.890Z,33.50
2018-02-15T08:14:37.308Z,35.20
2018-02-15T08:17:05.732Z,33.10
2018-02-15T08:19:34.176Z,34.20
2018-02-15T08:22:02.580Z,35.83
2018-02-15T08:24:30.987Z,32.90
2018-02-15T08:26:59.425Z,33.43
2018-02-15T08:29:27.837Z,36.67
2018-02-15T08:31:57.021Z,32.50
2018-02-15T08:34:25.454Z,34.23
2018-02-15T08:36:54.669Z,35.27
2018-02-15T08:39:23.075Z,34.20
2018-02-15T08:41:51.525Z,32.73
2018-02-15T08:44:19.992Z,31.50
2018-02-15T08:46:48.382Z,32.10
2018-02-15T08:49:16.916Z,34.30
2018-02-15T08:51:45.335Z,33.70
2018-02-15T08:54:13.778Z,32.23
2018-02-15T08:56:42.207Z,34.10
2018-02-15T08:59:10.602Z,32.53
2018-02-15T09:01:39.019Z,32.10
2018-02-15T09:04:07.443Z,31.70
2018-02-15T09:06:35.843Z,33.97
2018-02-15T09:09:04.264Z,32.40
2018-02-15T09:11:32.669Z,32.50
2018-02-15T09:14:01.878Z,34.43
2018-02-15T09:16:30.274Z,31.60
2018-02-15T09:18:58.679Z,30.93
2018-02-15T09:21:27.239Z,30.40
2018-02-15T09:23:55.637Z,31.63
2018-02-15T09:26:24.072Z,30.00
2018-02-15T09:28:52.528Z,29.87
2018-02-15T09:31:20.927Z,32.07
2018-02-15T09:33:49.368Z,29.97
2018-02-15T09:36:17.798Z,29.83
2018-02-15T09:38:46.198Z,31.60
2018-02-15T09:41:14.619Z,29.90
2018-02-15T09:43:43.053Z,27.80
2018-02-15T09:46:11.471Z,28.43
2018-02-15T09:48:39.920Z,30.73
2018-02-15T09:51:08.310Z,28.60
2018-02-15T09:53:36.724Z,29.07
2018-02-15T09:56:05.929Z,30.57
2018-02-15T09:58:35.103Z,29.13
2018-02-15T10:01:03.520Z,30.70
2018-02-15T10:03:31.931Z,28.90
2018-02-15T10:06:00.344Z,28.17
2018-02-15T10:08:28.797Z,29.80
2018-02-15T10:10:57.206Z,31.80
2018-02-15T10:13:25.604Z,28.17
2018-02-15T10:15:54.803Z,27.73
2018-02-15T10:18:23.978Z,28.67
2018-02-15T10:20:52.397Z,27.80
2018-02-15T10:23:20.815Z,28.93
2018-02-15T10:25:49.234Z,27.90
2018-02-15T10:28:18.422Z,32.27
2018-02-15T10:30:46.830Z,30.10
2018-02-15T10:33:15.253Z,29.00
2018-02-15T10:35:43.673Z,30.07
2018-02-15T10:38:12.885Z,29.20
2018-02-15T10:40:41.308Z,27.80
2018-02-15T10:43:09.711Z,26.03
2018-02-15T10:45:38.144Z,26.97
2018-02-15T10:48:06.570Z,25.03
2018-02-15T10:50:35.018Z,27.40
2018-02-15T10:53:03.438Z,26.90
2018-02-15T10:55:32.654Z,26.50
2018-02-15T10:58:01.094Z,26.67
2018-02-15T11:00:34.923Z,25.50
2018-02-15T11:03:09.386Z,25.03
2018-02-15T11:05:40.123Z,25.30
2018-02-15T11:08:08.576Z,25.13
2018-02-15T11:10:37.011Z,24.30
2018-02-15T11:13:05.419Z,23.40
2018-02-15T11:15:34.605Z,24.73
2018-02-15T11:18:03.033Z,23.63
2018-02-15T11:20:31.433Z,25.20
2018-02-15T11:22:59.862Z,23.70
2018-02-15T11:25:29.039Z,24.73
2018-02-15T11:27:57.483Z,22.87
2018-02-15T11:30:25.911Z,21.93
2018-02-15T11:32:55.092Z,22.90
2018-02-15T11:35:23.557Z,25.13
2018-02-15T11:37:52.020Z,21.73
2018-02-15T11:40:20.417Z,25.53
2018-02-15T11:42:48.844Z,23.30
2018-02-15T11:45:17.316Z,21.60
2018-02-15T11:47:45.729Z,23.20
2018-02-15T11:50:14.174Z,22.50
2018-02-15T11:52:42.611Z,21.57
2018-02-15T11:55:11.011Z,23.10
2018-02-15T11:57:39.446Z,23.50
2018-02-15T12:00:07.847Z,21.90
2018-02-15T12:02:36.289Z,23.50
2018-02-15T12:05:04.686Z,21.50
2018-02-15T12:07:33.084Z,22.33
2018-02-15T12:10:01.523Z,22.30
2018-02-15T12:12:29.920Z,22.47
2018-02-15T12:14:58.338Z,22.10
2018-02-15T12:17:26.782Z,22.27
2018-02-15T12:19:55.198Z,22.90
2018-02-15T12:22:23.597Z,22.80
2018-02-15T12:24:52.800Z,21.57
2018-02-15T12:27:22.024Z,20.03
2018-02-15T12:29:50.451Z,21.47
2018-02-15T12:32:18.852Z,20.00
2018-02-15T12:34:48.028Z,20.30
2018-02-15T12:37:16.470Z,20.67
2018-02-15T12:39:44.865Z,22.70
2018-02-15T12:42:13.272Z,20.23
2018-02-15T12:44:41.711Z,22.33
2018-02-15T12:47:10.114Z,21.07
2018-02-15T12:49:38.542Z,21.30
2018-02-15T12:52:06.986Z,21.10
2018-02-15T12:54:35.383Z,20.33
2018-02-15T12:57:04.582Z,19.27
2018-02-15T12:59:33.745Z,18.47
2018-02-15T13:02:02.162Z,20.67
2018-02-15T13:04:31.350Z,19.50
2018-02-15T13:07:00.560Z,18.50
2018-02-15T13:09:29.722Z,19.00
2018-02-15T13:11:58.162Z,19.50
2018-02-15T13:14:26.573Z,19.50
2018-02-15T13:16:57.785Z,19.13
2018-02-15T13:19:43.883Z,19.40
2018-02-15T13:22:29.892Z,18.97
2018-02-15T13:24:58.306Z,19.30
2018-02-15T13:30:37.472Z,17.90
2018-02-15T13:33:06.876Z,18.93
2018-02-15T13:35:35.316Z,19.17
2018-02-15T13:38:03.730Z,19.10
2018-02-15T13:40:32.921Z,18.97
2018-02-15T13:43:02.113Z,20.20
2018-02-15T13:45:30.559Z,20.23
2018-02-15T13:47:58.985Z,19.93
2018-02-15T13:50:27.670Z,19.60
2018-02-15T13:52:56.906Z,20.47
2018-02-15T13:55:25.303Z,20.03
2018-02-15T13:57:53.722Z,18.60
2018-02-15T14:00:22.931Z,17.50
2018-02-15T14:02:52.109Z,19.07
2018-02-15T14:05:20.520Z,18.53
2018-02-15T14:07:48.948Z,18.20
2018-02-15T14:10:17.350Z,18.77
2018-02-15T14:12:45.775Z,18.67
2018-02-15T14:15:14.171Z,18.47
2018-02-15T14:17:42.712Z,18.47
2018-02-15T14:20:12.023Z,19.03
2018-02-15T14:22:40.486Z,18.57
2018-02-15T14:25:08.980Z,18.00
2018-02-15T14:27:37.378Z,15.77
2018-02-15T14:30:05.802Z,16.90
2018-02-15T14:32:34.264Z,17.67
2018-02-15T14:35:03.433Z,17.43
2018-02-15T14:37:31.865Z,18.50
2018-02-15T14:40:00.256Z,17.83
2018-02-15T14:42:29.442Z,17.90
2018-02-15T14:44:58.669Z,15.83
2018-02-15T14:47:27.126Z,17.90
2018-02-15T14:49:56.311Z,18.30
2018-02-15T14:52:24.746Z,16.60
2018-02-15T14:54:53.173Z,17.60
2018-02-15T14:57:21.604Z,19.60
2018-02-15T14:59:50.049Z,20.60
2018-02-15T15:02:19.218Z,20.70
2018-02-15T15:04:47.686Z,22.20
2018-02-15T15:07:16.113Z,21.03
2018-02-15T15:09:44.585Z,20.80
2018-02-15T15:12:13.098Z,21.83
2018-02-15T15:14:41.511Z,24.40
2018-02-15T15:17:09.960Z,22.90
2018-02-15T15:19:38.365Z,24.57
2018-02-15T15:22:07.306Z,25.20
2018-02-15T15:24:36.553Z,23.87
2018-02-15T15:27:04.950Z,24.23
2018-02-15T15:29:33.389Z,23.20
2018-02-15T15:32:01.810Z,22.93
2018-02-15T15:34:30.414Z,22.07
2018-02-15T15:36:59.563Z,23.40
2018-02-15T15:39:27.974Z,21.37
2018-02-15T15:41:56.365Z,21.43
2018-02-15T15:44:25.584Z,21.27
2018-02-15T15:46:59.028Z,22.83
2018-02-15T15:49:27.498Z,21.17
2018-02-15T15:51:56.026Z,22.00
2018-02-15T15:54:25.224Z,23.73
2018-02-15T15:56:54.420Z,24.27
2018-02-15T15:59:23.595Z,23.93
2018-02-15T16:01:52.009Z,24.77
2018-02-15T16:04:20.411Z,24.80
2018-02-15T16:06:48.850Z,27.50
2018-02-15T16:09:18.065Z,25.63
2018-02-15T16:11:47.234Z,28.20
2018-02-15T16:14:15.680Z,31.83
2018-02-15T16:16:44.076Z,33.90
2018-02-15T16:19:12.583Z,30.53
2018-02-15T16:21:41.763Z,32.67
2018-02-15T16:24:10.160Z,31.57
2018-02-15T16:26:38.581Z,27.90
2018-02-15T16:29:07.093Z,28.40
2018-02-15T16:31:35.504Z,28.73
2018-02-15T16:34:03.940Z,31.03
2018-02-15T16:36:32.354Z,30.80
2018-02-15T16:39:00.793Z,30.47
2018-02-15T16:41:29.239Z,33.40
2018-02-15T16:43:57.633Z,33.77
2018-02-15T16:46:26.298Z,33.93
2018-02-15T16:48:55.518Z,33.30
2018-02-15T16:51:23.931Z,35.10
2018-02-15T16:53:52.354Z,34.17
2018-02-15T16:56:20.774Z,33.73
2018-02-15T16:58:49.398Z,33.13
2018-02-15T17:01:18.573Z,30.07
2018-02-15T17:03:46.986Z,31.70
2018-02-15T17:06:15.398Z,31.23
2018-02-15T17:08:43.813Z,31.20
2018-02-15T17:11:12.244Z,29.43
2018-02-15T17:13:40.682Z,31.20
2018-02-15T17:16:09.068Z,32.60
2018-02-15T17:18:38.285Z,30.57
2018-02-15T17:21:06.710Z,29.60
2018-02-15T17:23:35.153Z,32.50
2018-02-15T17:26:03.568Z,30.60
2018-02-15T17:28:31.994Z,31.37
2018-02-15T17:31:01.162Z,31.97
2018-02-15T17:33:29.606Z,30.83
2018-02-15T17:35:58.018Z,32.67
2018-02-15T17:38:26.459Z,33.47
2018-02-15T17:40:54.889Z,32.53
2018-02-15T17:43:23.322Z,32.83
2018-02-15T17:45:51.767Z,31.43
2018-02-15T17:48:20.186Z,32.37
2018-02-15T17:50:48.596Z,33.10
2018-02-15T17:53:17.021Z,31.47
2018-02-15T17:55:46.211Z,35.70
2018-02-15T17:58:14.634Z,35.00
2018-02-15T18:00:43.064Z,35.43
2018-02-15T18:03:11.532Z,35.77
2018-02-15T18:05:40.059Z,34.93
2018-02-15T18:08:08.500Z,33.60
2018-02-15T18:10:36.904Z,35.10
2018-02-15T18:13:05.322Z,35.13
2018-02-15T18:15:33.747Z,36.33
2018-02-15T18:18:02.176Z,34.10
2018-02-15T18:20:30.619Z,35.27
2018-02-15T18:22:59.041Z,35.40
2018-02-15T18:25:27.477Z,31.90
2018-02-15T18:27:55.913Z,34.37
2018-02-15T18:30:24.348Z,35.17
2018-02-15T18:32:52.814Z,33.10
2018-02-15T18:35:21.231Z,34.37
2018-02-15T18:37:49.806Z,33.43
2018-02-15T18:40:18.267Z,33.57
2018-02-15T18:42:46.703Z,33.47
2018-02-15T18:45:15.129Z,33.33
2018-02-15T18:47:43.561Z,32.50
2018-02-15T18:50:12.022Z,31.40
2018-02-15T18:52:40.414Z,29.93
2018-02-15T18:55:08.818Z,30.43
2018-02-15T18:57:37.250Z,30.27
2018-02-15T19:00:05.666Z,31.20
2018-02-15T19:02:34.063Z,28.67
2018-02-15T19:05:02.511Z,30.50
2018-02-15T19:07:30.906Z,28.70
2018-02-15T19:09:59.346Z,31.97
2018-02-15T19:12:27.747Z,30.00
2018-02-15T19:14:56.149Z,28.30
2018-02-15T19:17:24.594Z,27.97
2018-02-15T19:19:52.998Z,31.00
2018-02-15T19:22:21.391Z,26.47
2018-02-15T19:24:49.842Z,26.87
2018-02-15T19:27:18.248Z,28.67
2018-02-15T19:29:46.688Z,27.20
2018-02-15T19:32:15.086Z,27.10
2018-02-15T19:34:43.486Z,23.93
2018-02-15T19:37:11.925Z,25.00
2018-02-15T19:39:40.326Z,25.23
2018-02-15T19:42:08.725Z,24.77
2018-02-15T19:44:37.140Z,26.47
2018-02-15T19:47:05.573Z,24.93
2018-02-15T19:49:33.972Z,25.13
2018-02-15T19:52:02.377Z,26.10
2018-02-15T19:54:30.813Z,24.70
2018-02-15T19:56:59.993Z,26.93
2018-02-15T19:59:28.404Z,26.43
2018-02-15T20:01:56.858Z,27.07
2018-02-15T20:04:25.256Z,24.87
2018-02-15T20:06:53.674Z,26.00
2018-02-15T20:09:22.105Z,26.00
2018-02-15T20:11:51.286Z,26.73
2018-02-15T20:14:19.674Z,24.83
2018-02-15T20:16:48.139Z,25.93
2018-02-15T20:19:17.302Z,24.20
2018-02-15T20:21:45.718Z,24.43
2018-02-15T20:24:14.113Z,25.90
2018-02-15T20:26:48.067Z,24.63
2018-02-15T20:29:16.477Z,27.20
2018-02-15T20:31:44.870Z,26.77
2018-02-15T20:34:13.292Z,25.77
2018-02-15T20:36:41.705Z,27.37
2018-02-15T20:39:15.685Z,24.73
2018-02-15T20:41:44.081Z,26.50
2018-02-15T20:44:12.506Z,28.77
2018-02-15T20:46:40.934Z,28.40
2018-02-15T20:49:14.859Z,24.70
2018-02-15T20:51:48.690Z,25.40
2018-02-15T20:54:22.627Z,25.50
2018-02-15T20:56:51.828Z,26.93
2018-02-15T20:59:20.237Z,25.90
2018-02-15T21:01:48.662Z,24.10
2018-02-15T21:04:17.066Z,24.13
2018-02-15T21:06:45.470Z,27.20
2018-02-15T21:09:13.879Z,28.07
2018-02-15T21:11:42.286Z,25.30
2018-02-15T21:14:10.720Z,25.90
2018-02-15T21:16:39.114Z,24.40
2018-02-15T21:19:07.525Z,26.37
2018-02-15T21:21:35.943Z,23.70
2018-02-15T21:24:04.381Z,24.07
2018-02-15T21:26:32.793Z,25.73
2018-02-15T21:29:01.258Z,24.13
2018-02-15T21:31:29.660Z,23.30
2018-02-15T21:33:58.096Z,26.53
2018-02-15T21:36:26.525Z,24.60
2018-02-15T21:38:54.921Z,24.40
2018-02-15T21:41:23.354Z,22.17
2018-02-15T21:43:51.790Z,23.47
2018-02-15T21:46:20.215Z,21.53
2018-02-15T21:48:49.453Z,22.80
2018-02-15T21:51:17.882Z,22.70
2018-02-15T21:53:47.054Z,21.70
2018-02-15T21:56:15.517Z,20.83
2018-02-15T21:58:43.933Z,21.50
2018-02-15T22:01:12.359Z,21.17
2018-02-15T22:03:40.784Z,22.57
2018-02-15T22:06:09.285Z,20.63
2018-02-15T22:08:38.478Z,22.23
2018-02-15T22:11:07.663Z,20.93
2018-02-15T22:13:36.101Z,19.30
2018-02-15T22:16:04.518Z,20.87
2018-02-15T22:18:32.948Z,19.30
2018-02-15T22:21:01.338Z,21.67
2018-02-15T22:23:29.748Z,20.53
2018-02-15T22:25:58.114Z,19.27
2018-02-15T22:28:26.502Z,19.47
2018-02-15T22:30:54.874Z,21.90
2018-02-15T22:33:23.281Z,19.30
2018-02-15T22:35:52.422Z,20.00
2018-02-15T22:38:20.839Z,18.10
2018-02-15T22:40:49.274Z,21.87
2018-02-15T22:43:17.638Z,18.57
2018-02-15T22:45:46.146Z,18.47
2018-02-15T22:48:14.506Z,18.23
2018-02-15T22:50:43.000Z,20.50
2018-02-15T22:53:11.366Z,21.67
2018-02-15T22:55:39.860Z,20.17
2018-02-15T22:58:08.255Z,20.87
2018-02-15T23:00:36.621Z,21.83
2018-02-15T23:03:05.026Z,21.90
2018-02-15T23:05:33.422Z,22.17
2018-02-15T23:08:01.841Z,19.90
2018-02-15T23:10:30.690Z,20.77
2018-02-15T23:12:59.859Z,20.40
2018-02-15T23:15:28.253Z,22.20
2018-02-15T23:17:56.873Z,22.03
2018-02-15T23:20:26.006Z,21.00
2018-02-15T23:22:54.405Z,21.37
2018-02-15T23:25:22.925Z,22.20
2018-02-15T23:27:52.130Z,22.90
2018-02-15T23:30:20.542Z,20.83
2018-02-15T23:32:48.933Z,24.63
2018-02-15T23:35:17.437Z,23.53
2018-02-15T23:37:46.117Z,22.27
2018-02-15T23:40:14.545Z,23.80
2018-02-15T23:42:44.683Z,24.73
2018-02-15T23:45:13.089Z,24.83
2018-02-15T23:47:41.497Z,24.00
2018-02-15T23:50:10.655Z,25.07
2018-02-15T23:52:39.068Z,24.40
2018-02-15T23:55:07.499Z,25.03
2018-02-15T23:57:36.150Z,26.80
